Time;durP1;ratioP1;P1;durP2;ratioP2;P2;SDS_P1;SDS_P2;PMS_P1;PMS_P2;Temp;Humidity;BMP_temperature;BMP_pressure;BME280_temperature;BME280_humidity;BME280_pressure;Samples;Min_cycle;Max_cycle;Signal;HPM_P1;HPM_P2
2021/05/23 00:00:10;;;;;;;1.40;0.80;;;;;;;;;;5071532;28;20198;-79
2021/05/23 00:02:36;;;;;;;3.20;0.80;;;;;;;;;;5089842;28;20980;-79
2021/05/23 00:05:04;;;;;;;3.57;1.00;;;;;;;;;;5090134;27;20716;-79
2021/05/23 00:07:32;;;;;;;1.53;0.80;;;;;;;;;;5089555;28;20264;-79
2021/05/23 00:09:58;;;;;;;2.03;0.80;;;;;;;;;;5090432;28;20210;-79
2021/05/23 00:12:24;;;;;;;1.23;0.97;;;;;;;;;;5092651;28;20244;-79
2021/05/23 00:14:51;;;;;;;2.43;0.90;;;;;;;;;;5074797;28;20209;-79
2021/05/23 00:17:18;;;;;;;2.23;0.90;;;;;;;;;;5074845;28;20223;-79
2021/05/23 00:19:44;;;;;;;1.00;0.80;;;;;;;;;;5074447;28;20198;-79
2021/05/23 00:22:10;;;;;;;0.80;0.80;;;;;;;;;;5074654;28;20597;-79
2021/05/23 00:24:36;;;;;;;2.23;0.97;;;;;;;;;;5092705;27;20206;-79
2021/05/23 00:27:02;;;;;;;2.40;0.90;;;;;;;;;;5074276;28;20221;-79
2021/05/23 00:29:28;;;;;;;0.83;0.80;;;;;;;;;;5092972;28;20210;-79
2021/05/23 00:31:55;;;;;;;1.53;0.97;;;;;;;;;;5074677;27;20186;-78
2021/05/23 00:34:22;;;;;;;2.67;0.83;;;;;;;;;;5092494;28;20209;-79
2021/05/23 00:36:48;;;;;;;1.90;0.70;;;;;;;;;;5074478;28;20661;-79
2021/05/23 00:39:14;;;;;;;0.60;0.60;;;;;;;;;;5092725;28;20202;-79
2021/05/23 00:41:40;;;;;;;1.00;0.50;;;;;;;;;;5074168;28;20697;-79
2021/05/23 00:44:06;;;;;;;0.80;0.80;;;;;;;;;;5074637;28;20206;-79
2021/05/23 00:46:32;;;;;;;2.80;0.77;;;;;;;;;;5074273;28;20209;-79
2021/05/23 00:48:59;;;;;;;0.90;0.80;;;;;;;;;;5074368;28;20234;-79
2021/05/23 00:51:26;;;;;;;1.33;0.73;;;;;;;;;;5092597;28;20206;-79
2021/05/23 00:53:52;;;;;;;1.07;0.70;;;;;;;;;;5092100;28;20210;-79
2021/05/23 00:56:19;;;;;;;0.60;0.60;;;;;;;;;;5074182;28;20246;-78
2021/05/23 00:58:46;;;;;;;0.43;0.43;;;;;;;;;;5073987;28;20205;-77
2021/05/23 01:01:14;;;;;;;1.80;0.57;;;;;;;;;;5074215;28;20213;-78
2021/05/23 01:03:57;;;;;;;1.10;0.60;;;;;;;;;;5092521;28;20233;-79
2021/05/23 01:06:24;;;;;;;0.60;0.60;;;;;;;;;;5073915;28;20736;-80
2021/05/23 01:08:50;;;;;;;1.03;0.70;;;;;;;;;;5074414;28;20339;-80
2021/05/23 01:11:40;;;;;;;2.90;0.90;;;;;;;;;;5073993;28;20202;-79
2021/05/23 01:14:17;;;;;;;0.60;0.60;;;;;;;;;;5000746;28;20228;-79
2021/05/23 01:16:46;;;;;;;1.57;0.67;;;;;;;;;;5092471;28;20197;-78
2021/05/23 01:19:14;;;;;;;1.20;0.77;;;;;;;;;;5092101;28;20317;-78
2021/05/23 01:21:42;;;;;;;1.80;0.60;;;;;;;;;;5072355;28;20580;-77
2021/05/23 01:24:11;;;;;;;1.83;0.63;;;;;;;;;;5092040;28;20210;-79
2021/05/23 01:26:42;;;;;;;0.50;0.50;;;;;;;;;;5073238;27;20258;-78
2021/05/23 01:29:09;;;;;;;0.97;0.70;;;;;;;;;;5091486;28;20257;-78
2021/05/23 01:31:36;;;;;;;1.70;0.80;;;;;;;;;;5091692;28;20677;-78
2021/05/23 01:34:03;;;;;;;1.03;0.70;;;;;;;;;;5092474;28;20225;-79
2021/05/23 01:36:30;;;;;;;0.60;0.60;;;;;;;;;;5092405;28;20221;-78
2021/05/23 01:38:57;;;;;;;3.00;0.70;;;;;;;;;;5073488;28;20721;-78
2021/05/23 01:41:23;;;;;;;0.70;0.70;;;;;;;;;;5091453;28;20233;-79
2021/05/23 01:43:51;;;;;;;2.43;0.50;;;;;;;;;;5091757;28;20210;-78
2021/05/23 01:46:17;;;;;;;0.93;0.70;;;;;;;;;;5073424;28;20606;-79
2021/05/23 01:48:44;;;;;;;1.90;0.70;;;;;;;;;;5073378;28;20218;-79
2021/05/23 01:51:10;;;;;;;2.27;0.60;;;;;;;;;;5091219;28;20724;-79
2021/05/23 01:53:37;;;;;;;1.60;0.57;;;;;;;;;;5091475;28;20186;-79
2021/05/23 01:56:04;;;;;;;0.67;0.57;;;;;;;;;;5073341;28;20194;-78
2021/05/23 01:58:30;;;;;;;1.30;0.40;;;;;;;;;;5073595;28;20258;-79
2021/05/23 02:00:57;;;;;;;1.43;0.70;;;;;;;;;;5073421;28;20238;-79
2021/05/23 02:03:24;;;;;;;4.13;0.80;;;;;;;;;;5091204;28;20669;-79
2021/05/23 02:05:51;;;;;;;0.93;0.60;;;;;;;;;;5072813;28;20194;-79
2021/05/23 02:08:18;;;;;;;1.57;0.90;;;;;;;;;;5091227;28;20229;-79
2021/05/23 02:10:44;;;;;;;3.13;0.83;;;;;;;;;;5091357;28;20649;-79
2021/05/23 02:13:11;;;;;;;1.87;0.73;;;;;;;;;;5091288;28;20249;-78
2021/05/23 02:15:38;;;;;;;0.50;0.50;;;;;;;;;;5090664;28;20716;-79
2021/05/23 02:18:05;;;;;;;0.97;0.60;;;;;;;;;;5091165;28;20233;-78
2021/05/23 02:20:32;;;;;;;1.70;0.60;;;;;;;;;;5091020;28;20202;-79
2021/05/23 02:22:59;;;;;;;3.00;0.70;;;;;;;;;;5091176;28;20189;-77
2021/05/23 02:25:26;;;;;;;0.80;0.70;;;;;;;;;;5068939;27;20635;-79
2021/05/23 02:27:53;;;;;;;1.20;0.70;;;;;;;;;;5069277;28;20238;-79
2021/05/23 02:30:20;;;;;;;0.90;0.67;;;;;;;;;;5069511;28;20247;-79
2021/05/23 02:32:47;;;;;;;1.07;0.70;;;;;;;;;;5069651;28;20203;-80
2021/05/23 02:35:17;;;;;;;1.33;0.50;;;;;;;;;;5069375;28;20203;-79
2021/05/23 02:37:44;;;;;;;2.70;1.00;;;;;;;;;;5070157;28;20206;-80
2021/05/23 02:40:12;;;;;;;0.50;0.50;;;;;;;;;;5070561;28;20238;-79
2021/05/23 02:42:38;;;;;;;0.53;0.50;;;;;;;;;;5069583;28;20199;-78
2021/05/23 02:45:05;;;;;;;1.10;0.80;;;;;;;;;;5069345;28;20209;-79
2021/05/23 02:47:31;;;;;;;0.37;0.37;;;;;;;;;;5068931;28;20203;-79
2021/05/23 02:49:58;;;;;;;0.63;0.50;;;;;;;;;;5070323;28;20178;-80
2021/05/23 02:52:25;;;;;;;1.73;0.67;;;;;;;;;;5070342;28;20230;-79
2021/05/23 02:54:51;;;;;;;0.60;0.60;;;;;;;;;;5070447;28;20210;-79
2021/05/23 02:57:17;;;;;;;0.63;0.63;;;;;;;;;;5070489;28;20186;-79
2021/05/23 02:59:44;;;;;;;1.20;0.63;;;;;;;;;;5068913;28;20542;-79
2021/05/23 03:02:10;;;;;;;1.23;0.50;;;;;;;;;;5068793;28;20247;-79
2021/05/23 03:04:36;;;;;;;1.40;0.50;;;;;;;;;;5070186;28;20231;-79
2021/05/23 03:07:02;;;;;;;0.50;0.50;;;;;;;;;;5070304;28;20584;-80
2021/05/23 03:09:29;;;;;;;0.57;0.57;;;;;;;;;;5069492;28;20247;-79
2021/05/23 03:11:56;;;;;;;0.63;0.63;;;;;;;;;;5069093;28;20239;-79
2021/05/23 03:14:22;;;;;;;1.07;0.47;;;;;;;;;;5069580;28;20199;-78
2021/05/23 03:16:48;;;;;;;0.90;0.80;;;;;;;;;;5068428;28;20216;-80
2021/05/23 03:19:14;;;;;;;0.40;0.40;;;;;;;;;;5068588;28;20220;-80
2021/05/23 03:21:40;;;;;;;2.37;0.60;;;;;;;;;;5070100;28;20245;-78
2021/05/23 03:24:07;;;;;;;0.50;0.50;;;;;;;;;;5069242;28;20203;-78
2021/05/23 03:26:34;;;;;;;4.03;0.70;;;;;;;;;;5068071;27;20230;-78
2021/05/23 03:29:01;;;;;;;1.03;0.87;;;;;;;;;;5069237;28;20276;-78
2021/05/23 03:31:27;;;;;;;1.10;0.80;;;;;;;;;;5070540;28;20310;-79
2021/05/23 03:33:53;;;;;;;0.53;0.53;;;;;;;;;;5070555;28;20926;-79
2021/05/23 03:36:20;;;;;;;0.80;0.60;;;;;;;;;;5069911;28;20234;-78
2021/05/23 03:38:46;;;;;;;2.20;0.47;;;;;;;;;;5069814;28;20217;-78
2021/05/23 03:41:13;;;;;;;0.77;0.77;;;;;;;;;;5069902;28;20214;-78
2021/05/23 03:43:40;;;;;;;0.47;0.47;;;;;;;;;;5068487;28;20548;-78
2021/05/23 03:46:06;;;;;;;0.50;0.50;;;;;;;;;;5071961;28;20642;-78
2021/05/23 03:48:33;;;;;;;0.77;0.77;;;;;;;;;;5072466;28;20317;-78
2021/05/23 03:50:59;;;;;;;1.17;1.07;;;;;;;;;;5071789;28;20202;-78
2021/05/23 03:53:25;;;;;;;0.60;0.43;;;;;;;;;;5073584;28;20648;-78
2021/05/23 03:55:51;;;;;;;3.00;0.63;;;;;;;;;;5074266;27;20241;-80
2021/05/23 03:58:18;;;;;;;0.70;0.70;;;;;;;;;;5074616;28;20230;-79
2021/05/23 04:00:45;;;;;;;3.23;0.73;;;;;;;;;;5072134;28;20230;-78
2021/05/23 04:03:11;;;;;;;1.63;0.77;;;;;;;;;;5071684;28;20206;-78
2021/05/23 04:05:37;;;;;;;0.67;0.50;;;;;;;;;;5073997;27;20215;-79
2021/05/23 04:08:04;;;;;;;1.00;0.70;;;;;;;;;;5071652;28;20187;-79
2021/05/23 04:10:32;;;;;;;1.10;0.67;;;;;;;;;;5072384;28;20206;-79
2021/05/23 04:13:00;;;;;;;0.60;0.60;;;;;;;;;;5073784;27;20557;-80
2021/05/23 04:15:27;;;;;;;1.30;0.87;;;;;;;;;;5073518;28;20214;-78
2021/05/23 04:17:54;;;;;;;0.97;0.80;;;;;;;;;;5073856;27;20314;-79
2021/05/23 04:20:21;;;;;;;0.80;0.80;;;;;;;;;;5071674;28;20222;-79
2021/05/23 04:22:48;;;;;;;1.43;0.77;;;;;;;;;;5070942;28;20210;-80
2021/05/23 04:25:15;;;;;;;1.70;0.90;;;;;;;;;;5071267;27;20226;-79
2021/05/23 04:27:42;;;;;;;1.60;1.00;;;;;;;;;;5071704;28;20275;-79
2021/05/23 04:30:10;;;;;;;1.37;0.80;;;;;;;;;;5072027;28;20218;-79
2021/05/23 04:32:37;;;;;;;0.70;0.70;;;;;;;;;;5073566;27;20215;-78
2021/05/23 04:35:04;;;;;;;1.37;0.90;;;;;;;;;;5073220;28;20238;-79
2021/05/23 04:37:31;;;;;;;1.17;1.07;;;;;;;;;;5071790;28;20207;-79
2021/05/23 04:39:57;;;;;;;1.10;0.80;;;;;;;;;;5071374;28;20206;-78
2021/05/23 04:42:24;;;;;;;0.93;0.93;;;;;;;;;;5072699;28;20806;-78
2021/05/23 04:44:50;;;;;;;0.90;0.90;;;;;;;;;;5074071;27;20231;-79
2021/05/23 04:47:16;;;;;;;2.87;0.80;;;;;;;;;;5071263;28;20596;-79
2021/05/23 04:49:43;;;;;;;2.47;1.03;;;;;;;;;;5071492;28;20271;-78
2021/05/23 04:52:11;;;;;;;1.20;1.00;;;;;;;;;;5072298;28;20206;-78
2021/05/23 04:54:37;;;;;;;1.50;1.43;;;;;;;;;;5071090;28;20211;-78
2021/05/23 04:57:04;;;;;;;2.10;1.10;;;;;;;;;;5072274;28;20203;-79
2021/05/23 04:59:30;;;;;;;1.93;1.03;;;;;;;;;;5070957;28;20632;-78
2021/05/23 05:01:56;;;;;;;3.93;1.23;;;;;;;;;;5071630;28;20210;-78
2021/05/23 05:04:22;;;;;;;1.53;0.90;;;;;;;;;;5071917;28;20674;-77
2021/05/23 05:06:48;;;;;;;2.30;0.93;;;;;;;;;;5072049;28;20653;-78
2021/05/23 05:09:15;;;;;;;2.73;1.00;;;;;;;;;;5072789;27;20254;-78
2021/05/23 05:11:42;;;;;;;0.97;0.70;;;;;;;;;;5070658;28;20266;-78
2021/05/23 05:14:10;;;;;;;0.87;0.87;;;;;;;;;;5071106;28;20207;-80
2021/05/23 05:16:36;;;;;;;2.20;0.93;;;;;;;;;;5070572;28;20234;-78
2021/05/23 05:19:03;;;;;;;1.70;0.90;;;;;;;;;;5070896;28;20183;-78
2021/05/23 05:21:29;;;;;;;4.60;1.47;;;;;;;;;;5070535;28;20565;-79
2021/05/23 05:23:55;;;;;;;1.70;0.90;;;;;;;;;;5071055;28;20562;-78
2021/05/23 05:26:22;;;;;;;1.50;0.90;;;;;;;;;;5086178;27;20230;-79
2021/05/23 05:28:48;;;;;;;1.00;0.90;;;;;;;;;;5091980;28;20604;-78
2021/05/23 05:31:14;;;;;;;2.30;1.07;;;;;;;;;;5092712;27;20206;-78
2021/05/23 05:33:40;;;;;;;3.37;0.77;;;;;;;;;;5073798;28;20189;-79
2021/05/23 05:36:07;;;;;;;2.33;0.83;;;;;;;;;;5073594;28;20209;-79
2021/05/23 05:38:33;;;;;;;2.07;1.00;;;;;;;;;;5092291;28;20664;-78
2021/05/23 05:40:59;;;;;;;0.80;0.80;;;;;;;;;;5091941;28;20244;-78
2021/05/23 05:43:26;;;;;;;1.07;0.70;;;;;;;;;;5091706;28;20679;-79
2021/05/23 05:45:52;;;;;;;1.43;1.10;;;;;;;;;;5074644;28;20202;-79
2021/05/23 05:48:18;;;;;;;0.87;0.80;;;;;;;;;;5073541;28;20217;-79
2021/05/23 05:50:45;;;;;;;1.30;0.77;;;;;;;;;;5091103;28;20244;-77
2021/05/23 05:53:11;;;;;;;1.90;1.10;;;;;;;;;;5073019;28;20218;-78
2021/05/23 05:55:37;;;;;;;1.57;1.20;;;;;;;;;;5073267;28;20205;-78
2021/05/23 05:58:03;;;;;;;1.57;1.10;;;;;;;;;;5073731;28;20649;-78
2021/05/23 06:00:30;;;;;;;2.63;1.00;;;;;;;;;;5073844;28;20202;-78
2021/05/23 06:02:56;;;;;;;0.77;0.77;;;;;;;;;;5073000;28;20202;-79
2021/05/23 06:05:23;;;;;;;1.93;0.87;;;;;;;;;;5091726;27;20252;-77
2021/05/23 06:07:49;;;;;;;1.57;1.03;;;;;;;;;;5090454;28;20241;-80
2021/05/23 06:10:15;;;;;;;1.20;1.07;;;;;;;;;;5091063;28;20249;-81
2021/05/23 06:12:41;;;;;;;0.80;0.80;;;;;;;;;;5091360;28;20190;-80
2021/05/23 06:15:09;;;;;;;2.30;0.93;;;;;;;;;;5091117;28;20250;-82
2021/05/23 06:17:36;;;;;;;1.80;1.00;;;;;;;;;;5090993;28;20256;-81
2021/05/23 06:20:03;;;;;;;2.10;1.00;;;;;;;;;;5090852;28;20210;-80
2021/05/23 06:22:29;;;;;;;1.57;0.80;;;;;;;;;;5072467;28;20198;-83
2021/05/23 06:24:55;;;;;;;0.83;0.67;;;;;;;;;;5091010;27;20233;-81
2021/05/23 06:27:21;;;;;;;1.67;0.97;;;;;;;;;;5090466;28;20237;-80
2021/05/23 06:29:48;;;;;;;1.37;0.90;;;;;;;;;;5073370;28;20242;-81
2021/05/23 06:32:14;;;;;;;1.70;1.10;;;;;;;;;;5090928;28;20680;-80
2021/05/23 06:34:41;;;;;;;1.13;1.03;;;;;;;;;;5072339;28;20202;-81
2021/05/23 06:37:07;;;;;;;1.93;0.90;;;;;;;;;;5072744;28;20201;-81
2021/05/23 06:39:34;;;;;;;2.43;0.93;;;;;;;;;;5072847;28;20182;-81
2021/05/23 06:42:00;;;;;;;0.90;0.90;;;;;;;;;;5090649;28;20740;-81
2021/05/23 06:44:26;;;;;;;1.97;0.90;;;;;;;;;;5090846;28;20526;-80
2021/05/23 06:46:52;;;;;;;3.43;1.10;;;;;;;;;;5072745;28;20202;-81
2021/05/23 06:49:19;;;;;;;1.40;1.00;;;;;;;;;;5090480;28;20257;-81
2021/05/23 06:51:46;;;;;;;1.13;0.90;;;;;;;;;;5090308;28;20210;-81
2021/05/23 06:54:12;;;;;;;2.73;1.00;;;;;;;;;;5073130;28;20205;-81
2021/05/23 06:56:38;;;;;;;1.00;1.00;;;;;;;;;;5072076;28;20250;-80
2021/05/23 06:59:04;;;;;;;1.10;1.00;;;;;;;;;;5072490;28;20193;-81
2021/05/23 07:01:31;;;;;;;3.23;0.83;;;;;;;;;;5090504;28;20237;-81
2021/05/23 07:03:57;;;;;;;2.67;1.03;;;;;;;;;;5072418;28;20190;-81
2021/05/23 07:06:24;;;;;;;1.60;1.13;;;;;;;;;;5090606;28;20178;-81
2021/05/23 07:08:51;;;;;;;1.17;1.07;;;;;;;;;;5090093;28;20257;-81
2021/05/23 07:11:17;;;;;;;2.87;0.97;;;;;;;;;;5090731;28;20532;-81
2021/05/23 07:13:43;;;;;;;1.13;0.80;;;;;;;;;;5072406;28;20190;-81
2021/05/23 07:16:09;;;;;;;1.27;0.83;;;;;;;;;;5090337;28;20214;-79
2021/05/23 07:18:35;;;;;;;1.43;0.70;;;;;;;;;;5090251;28;20233;-80
2021/05/23 07:21:02;;;;;;;1.87;1.13;;;;;;;;;;5073885;28;20216;-80
2021/05/23 07:23:28;;;;;;;0.97;0.83;;;;;;;;;;5075876;28;20217;-81
2021/05/23 07:25:55;;;;;;;3.37;1.00;;;;;;;;;;5071568;27;20778;-79
2021/05/23 07:28:22;;;;;;;1.10;1.00;;;;;;;;;;5072415;28;20658;-79
2021/05/23 07:30:48;;;;;;;1.90;0.97;;;;;;;;;;5074054;27;20280;-80
2021/05/23 07:33:15;;;;;;;0.97;0.83;;;;;;;;;;5072426;28;20281;-80
2021/05/23 07:35:41;;;;;;;1.40;1.03;;;;;;;;;;5072200;28;20259;-80
2021/05/23 07:38:07;;;;;;;0.87;0.80;;;;;;;;;;5073790;28;20598;-79
2021/05/23 07:40:33;;;;;;;1.10;0.93;;;;;;;;;;5072867;28;20194;-81
2021/05/23 07:43:02;;;;;;;2.40;0.83;;;;;;;;;;5073528;28;20175;-81
2021/05/23 07:45:28;;;;;;;2.57;0.90;;;;;;;;;;5073327;28;20211;-81
2021/05/23 07:47:55;;;;;;;1.37;0.93;;;;;;;;;;5071649;28;20334;-81
2021/05/23 07:50:21;;;;;;;3.83;1.20;;;;;;;;;;5074260;27;20254;-81
2021/05/23 07:52:47;;;;;;;2.47;0.70;;;;;;;;;;5071875;28;20403;-80
2021/05/23 07:55:13;;;;;;;1.43;0.97;;;;;;;;;;5072108;28;20191;-80
2021/05/23 07:57:40;;;;;;;2.23;0.97;;;;;;;;;;5071988;28;20235;-81
2021/05/23 08:00:08;;;;;;;1.17;0.67;;;;;;;;;;5073565;28;20207;-80
2021/05/23 08:02:34;;;;;;;2.73;1.10;;;;;;;;;;5073757;27;20206;-80
2021/05/23 08:05:00;;;;;;;2.00;0.80;;;;;;;;;;5073095;28;20215;-79
2021/05/23 08:07:27;;;;;;;3.13;0.90;;;;;;;;;;5071316;28;20262;-81
2021/05/23 08:09:53;;;;;;;1.00;0.73;;;;;;;;;;5072696;28;20258;-80
2021/05/23 08:12:20;;;;;;;2.10;0.90;;;;;;;;;;5073124;28;20229;-80
2021/05/23 08:14:46;;;;;;;0.70;0.70;;;;;;;;;;5072937;28;20202;-80
2021/05/23 08:17:13;;;;;;;0.87;0.87;;;;;;;;;;5071706;28;20191;-80
2021/05/23 08:19:39;;;;;;;1.43;0.80;;;;;;;;;;5071111;28;20233;-80
2021/05/23 08:22:05;;;;;;;2.50;1.10;;;;;;;;;;5071238;28;20203;-79
2021/05/23 08:24:32;;;;;;;2.17;0.87;;;;;;;;;;5071738;28;20187;-81
2021/05/23 08:26:59;;;;;;;1.83;0.97;;;;;;;;;;5070584;28;20238;-79
2021/05/23 08:29:28;;;;;;;2.73;1.10;;;;;;;;;;5070720;28;20239;-80
2021/05/23 08:31:54;;;;;;;2.43;0.97;;;;;;;;;;5071260;28;20211;-80
2021/05/23 08:34:21;;;;;;;3.57;1.03;;;;;;;;;;5073341;28;20657;-79
2021/05/23 08:36:47;;;;;;;1.97;1.00;;;;;;;;;;5071011;28;20615;-80
2021/05/23 08:39:13;;;;;;;0.90;0.90;;;;;;;;;;5071591;28;20251;-80
2021/05/23 08:41:41;;;;;;;1.60;1.03;;;;;;;;;;5071565;28;20195;-80
2021/05/23 08:44:07;;;;;;;3.93;1.20;;;;;;;;;;5071127;28;20657;-79
2021/05/23 08:46:33;;;;;;;2.37;1.13;;;;;;;;;;5072296;28;20211;-79
2021/05/23 08:49:00;;;;;;;1.53;1.03;;;;;;;;;;5072709;28;20218;-80
2021/05/23 08:51:28;;;;;;;3.87;1.00;;;;;;;;;;5072300;28;20248;-81
2021/05/23 08:53:54;;;;;;;2.87;1.10;;;;;;;;;;5071154;28;20199;-79
2021/05/23 08:56:20;;;;;;;0.87;0.87;;;;;;;;;;5070982;28;20206;-78
2021/05/23 08:58:46;;;;;;;1.07;0.90;;;;;;;;;;5070815;28;20209;-77
2021/05/23 09:01:22;;;;;;;3.13;1.00;;;;;;;;;;5070907;28;20204;-77
2021/05/23 09:03:55;;;;;;;0.87;0.87;;;;;;;;;;5072121;28;20213;-78
2021/05/23 09:06:25;;;;;;;1.10;1.00;;;;;;;;;;5071029;28;20738;-78
2021/05/23 09:08:56;;;;;;;1.80;1.03;;;;;;;;;;5070953;28;20235;-78
2021/05/23 09:11:22;;;;;;;1.23;1.13;;;;;;;;;;5071923;28;20171;-77
2021/05/23 09:13:50;;;;;;;1.20;0.93;;;;;;;;;;5071362;28;20206;-78
2021/05/23 09:16:16;;;;;;;1.40;1.07;;;;;;;;;;5072424;27;20907;-77
2021/05/23 09:18:43;;;;;;;3.20;1.00;;;;;;;;;;5070557;28;20650;-78
2021/05/23 09:21:09;;;;;;;0.80;0.80;;;;;;;;;;5072373;28;20593;-77
2021/05/23 09:23:46;;;;;;;2.50;0.97;;;;;;;;;;5071099;28;20254;-77
2021/05/23 09:26:16;;;;;;;1.57;1.03;;;;;;;;;;5084119;27;20256;-77
2021/05/23 09:28:43;;;;;;;1.40;0.70;;;;;;;;;;5073866;28;20209;-79
2021/05/23 09:31:17;;;;;;;1.23;0.90;;;;;;;;;;5073601;27;20233;-78
2021/05/23 09:33:44;;;;;;;2.20;0.80;;;;;;;;;;5091839;28;20177;-78
2021/05/23 09:36:10;;;;;;;1.37;0.63;;;;;;;;;;5092025;28;20198;-79
2021/05/23 09:38:40;;;;;;;1.10;1.00;;;;;;;;;;5073711;28;20250;-79
2021/05/23 09:41:17;;;;;;;0.80;0.80;;;;;;;;;;5071694;28;20725;-78
2021/05/23 09:43:43;;;;;;;0.53;0.53;;;;;;;;;;5072582;28;20186;-79
2021/05/23 09:46:09;;;;;;;1.77;0.93;;;;;;;;;;5091548;28;20217;-79
2021/05/23 09:48:38;;;;;;;3.73;1.07;;;;;;;;;;5073073;28;20246;-78
2021/05/23 09:51:11;;;;;;;2.37;0.90;;;;;;;;;;5073539;28;20234;-80
2021/05/23 09:53:38;;;;;;;2.03;0.93;;;;;;;;;;5073331;28;20202;-79
2021/05/23 09:56:06;;;;;;;0.60;0.60;;;;;;;;;;5091504;28;20209;-79
2021/05/23 09:58:36;;;;;;;2.10;1.17;;;;;;;;;;5091190;28;20206;-79
2021/05/23 10:01:03;;;;;;;0.70;0.60;;;;;;;;;;5091380;28;20233;-79
2021/05/23 10:03:30;;;;;;;1.37;0.80;;;;;;;;;;5073226;28;20194;-79
2021/05/23 10:05:56;;;;;;;1.33;0.90;;;;;;;;;;5091524;28;20210;-81
2021/05/23 10:08:23;;;;;;;1.13;0.90;;;;;;;;;;5091412;28;20209;-78
2021/05/23 10:10:49;;;;;;;1.23;0.77;;;;;;;;;;5072910;28;20241;-78
2021/05/23 10:13:17;;;;;;;1.17;0.83;;;;;;;;;;5073099;28;20202;-79
2021/05/23 10:15:44;;;;;;;1.53;1.23;;;;;;;;;;5091213;28;20202;-78
2021/05/23 10:18:10;;;;;;;1.30;0.80;;;;;;;;;;5091048;28;20240;-79
2021/05/23 10:20:37;;;;;;;0.80;0.80;;;;;;;;;;5072794;28;20194;-79
2021/05/23 10:23:07;;;;;;;2.33;0.60;;;;;;;;;;5072925;28;20231;-78
2021/05/23 10:25:33;;;;;;;2.00;0.93;;;;;;;;;;5090772;27;20256;-78
2021/05/23 10:28:01;;;;;;;1.27;0.70;;;;;;;;;;5072458;28;20205;-79
2021/05/23 10:30:27;;;;;;;1.17;0.90;;;;;;;;;;5091100;28;20225;-79
2021/05/23 10:32:55;;;;;;;2.40;0.80;;;;;;;;;;5073080;28;20182;-79
2021/05/23 10:35:22;;;;;;;1.00;0.80;;;;;;;;;;5072777;28;20602;-80
2021/05/23 10:37:49;;;;;;;0.63;0.63;;;;;;;;;;5072704;28;20194;-80
2021/05/23 10:40:17;;;;;;;1.73;0.63;;;;;;;;;;5072522;28;20255;-78
2021/05/23 10:42:48;;;;;;;5.83;0.90;;;;;;;;;;5072831;28;20190;-78
2021/05/23 10:45:21;;;;;;;1.20;0.83;;;;;;;;;;5072341;28;20206;-81
2021/05/23 10:47:47;;;;;;;2.60;0.90;;;;;;;;;;5072447;28;20193;-76
2021/05/23 10:50:14;;;;;;;1.37;1.03;;;;;;;;;;5072294;28;20241;-76
2021/05/23 10:52:41;;;;;;;2.40;1.10;;;;;;;;;;5090399;28;20229;-77
2021/05/23 10:55:09;;;;;;;0.73;0.73;;;;;;;;;;5072000;28;20205;-76
2021/05/23 10:57:42;;;;;;;1.53;1.00;;;;;;;;;;5072535;28;20653;-77
2021/05/23 11:00:10;;;;;;;1.47;0.90;;;;;;;;;;5056800;27;20622;-76
2021/05/23 11:02:37;;;;;;;1.37;0.90;;;;;;;;;;5178175;27;20209;-77
2021/05/23 11:05:11;;;;;;;0.93;0.80;;;;;;;;;;5177893;27;20186;-77
2021/05/23 11:07:38;;;;;;;1.13;0.60;;;;;;;;;;5196115;27;20210;-77
2021/05/23 11:10:17;;;;;;;0.70;0.70;;;;;;;;;;5178096;27;20613;-79
2021/05/23 11:12:47;;;;;;;3.83;0.80;;;;;;;;;;5177959;27;20185;-80
2021/05/23 11:15:13;;;;;;;0.70;0.70;;;;;;;;;;5196853;27;20206;-79
2021/05/23 11:17:40;;;;;;;0.50;0.50;;;;;;;;;;5177572;27;20202;-78
2021/05/23 11:20:13;;;;;;;0.50;0.50;;;;;;;;;;5177786;27;20194;-76
2021/05/23 11:22:42;;;;;;;0.77;0.77;;;;;;;;;;5196366;27;20244;-81
2021/05/23 11:25:09;;;;;;;0.60;0.60;;;;;;;;;;5174301;27;20222;-79
2021/05/23 11:27:35;;;;;;;2.17;0.70;;;;;;;;;;5175627;27;20696;-81
2021/05/23 11:30:09;;;;;;;1.30;0.67;;;;;;;;;;5174056;27;20966;-80
2021/05/23 11:32:35;;;;;;;4.17;0.87;;;;;;;;;;5174394;27;20182;-80
2021/05/23 11:35:01;;;;;;;0.90;0.90;;;;;;;;;;5174773;27;20207;-80
2021/05/23 11:37:35;;;;;;;0.93;0.70;;;;;;;;;;5174360;27;20591;-80
2021/05/23 11:40:05;;;;;;;3.90;0.93;;;;;;;;;;5175332;27;20238;-80
2021/05/23 11:42:35;;;;;;;1.57;1.30;;;;;;;;;;5174078;27;20191;-79
2021/05/23 11:45:01;;;;;;;3.97;1.30;;;;;;;;;;5173650;27;20198;-80
2021/05/23 11:47:27;;;;;;;1.50;1.33;;;;;;;;;;5173900;27;20231;-80
2021/05/23 11:49:53;;;;;;;1.47;1.00;;;;;;;;;;5174101;27;20248;-79
2021/05/23 11:52:19;;;;;;;1.63;1.10;;;;;;;;;;5175285;27;20183;-79
2021/05/23 11:54:45;;;;;;;1.03;0.70;;;;;;;;;;5175395;27;20182;-80
2021/05/23 11:57:17;;;;;;;1.37;1.17;;;;;;;;;;5173747;27;20202;-80
2021/05/23 11:59:43;;;;;;;0.80;0.80;;;;;;;;;;5173993;27;20552;-79
2021/05/23 12:02:10;;;;;;;0.80;0.80;;;;;;;;;;5173383;27;20199;-79
2021/05/23 12:04:36;;;;;;;1.53;0.90;;;;;;;;;;5173780;27;20198;-79
2021/05/23 12:07:03;;;;;;;0.80;0.80;;;;;;;;;;5176164;27;20231;-79
2021/05/23 12:09:31;;;;;;;1.10;0.73;;;;;;;;;;5178795;27;20669;-79
2021/05/23 12:11:57;;;;;;;1.60;0.77;;;;;;;;;;5177745;27;20230;-79
2021/05/23 12:14:26;;;;;;;1.23;0.97;;;;;;;;;;5178906;27;20210;-80
2021/05/23 12:16:58;;;;;;;1.00;0.80;;;;;;;;;;5177488;27;20199;-80
2021/05/23 12:19:44;;;;;;;1.07;0.67;;;;;;;;;;5177777;27;20549;-80
2021/05/23 12:22:10;;;;;;;1.33;0.80;;;;;;;;;;5179173;27;20227;-80
2021/05/23 12:24:36;;;;;;;0.67;0.50;;;;;;;;;;5177646;27;20195;-82
2021/05/23 12:27:03;;;;;;;1.03;0.70;;;;;;;;;;5181115;27;20231;-83
2021/05/23 12:29:30;;;;;;;0.50;0.50;;;;;;;;;;5199949;27;20791;-79
2021/05/23 12:31:56;;;;;;;1.50;0.63;;;;;;;;;;5199718;27;20249;-83
2021/05/23 12:34:22;;;;;;;0.83;0.60;;;;;;;;;;5199953;27;20166;-81
2021/05/23 12:36:49;;;;;;;0.63;0.57;;;;;;;;;;5181250;27;20201;-80
2021/05/23 12:39:21;;;;;;;1.07;1.03;;;;;;;;;;5180861;27;20702;-80
2021/05/23 12:41:47;;;;;;;0.93;0.60;;;;;;;;;;5199389;27;20205;-80
2021/05/23 12:44:17;;;;;;;0.87;0.60;;;;;;;;;;5180770;27;20218;-79
2021/05/23 12:46:45;;;;;;;1.90;0.80;;;;;;;;;;5180058;27;20242;-80
2021/05/23 12:49:14;;;;;;;0.60;0.60;;;;;;;;;;5180371;27;20597;-80
2021/05/23 12:51:42;;;;;;;1.50;0.80;;;;;;;;;;5180700;27;20282;-82
2021/05/23 12:54:08;;;;;;;0.73;0.70;;;;;;;;;;5180641;27;20219;-82
2021/05/23 12:56:36;;;;;;;1.70;0.90;;;;;;;;;;5180413;27;20246;-83
2021/05/23 12:59:03;;;;;;;0.60;0.60;;;;;;;;;;5181237;27;20198;-84
2021/05/23 13:01:35;;;;;;;1.87;0.80;;;;;;;;;;5199581;27;20625;-80
2021/05/23 13:04:03;;;;;;;0.40;0.40;;;;;;;;;;5199441;27;20244;-83
2021/05/23 13:06:39;;;;;;;2.33;0.67;;;;;;;;;;5180437;27;20202;-81
2021/05/23 13:09:05;;;;;;;1.80;0.70;;;;;;;;;;5180517;27;20201;-80
2021/05/23 13:11:31;;;;;;;2.53;0.73;;;;;;;;;;5179811;27;20214;-82
2021/05/23 13:13:58;;;;;;;0.80;0.50;;;;;;;;;;5179915;27;20726;-80
2021/05/23 13:16:24;;;;;;;0.83;0.83;;;;;;;;;;5179916;27;20650;-80
2021/05/23 13:18:50;;;;;;;0.87;0.53;;;;;;;;;;5178540;27;20194;-82
2021/05/23 13:21:18;;;;;;;0.50;0.50;;;;;;;;;;5198197;27;20218;-82
2021/05/23 13:23:45;;;;;;;0.83;0.57;;;;;;;;;;5179569;27;20198;-81
2021/05/23 13:26:12;;;;;;;0.70;0.70;;;;;;;;;;5175550;27;20593;-81
2021/05/23 13:28:38;;;;;;;0.87;0.80;;;;;;;;;;5176189;27;20555;-81
2021/05/23 13:31:04;;;;;;;0.50;0.50;;;;;;;;;;5176147;27;20234;-82
2021/05/23 13:33:31;;;;;;;1.07;0.60;;;;;;;;;;5175900;27;20202;-81
2021/05/23 13:35:57;;;;;;;1.30;0.68;;;;;;;;;;5174961;27;20759;-82
2021/05/23 13:38:25;;;;;;;0.63;0.47;;;;;;;;;;5176072;27;20251;-81
2021/05/23 13:40:51;;;;;;;1.10;0.50;;;;;;;;;;5176233;27;20250;-81
2021/05/23 13:43:17;;;;;;;1.40;1.23;;;;;;;;;;5177312;27;20213;-81
2021/05/23 13:45:43;;;;;;;0.67;0.63;;;;;;;;;;5176841;27;20645;-81
2021/05/23 13:48:09;;;;;;;2.17;0.50;;;;;;;;;;5176909;27;20210;-80
2021/05/23 13:50:36;;;;;;;2.27;0.63;;;;;;;;;;5175695;27;20215;-82
2021/05/23 13:53:02;;;;;;;0.50;0.50;;;;;;;;;;5175460;27;20234;-82
2021/05/23 13:55:29;;;;;;;1.90;0.40;;;;;;;;;;5177381;27;20230;-82
2021/05/23 13:57:55;;;;;;;0.57;0.57;;;;;;;;;;5175904;27;20187;-86
2021/05/23 14:00:22;;;;;;;0.50;0.50;;;;;;;;;;5175702;27;20195;-83
2021/05/23 14:02:48;;;;;;;0.87;0.47;;;;;;;;;;5175474;27;20223;-81
2021/05/23 14:05:14;;;;;;;2.13;0.67;;;;;;;;;;5076311;27;20216;-82
2021/05/23 14:07:40;;;;;;;0.60;0.50;;;;;;;;;;5069846;28;20186;-81
2021/05/23 14:10:07;;;;;;;1.07;0.60;;;;;;;;;;5070629;28;20553;-81
2021/05/23 14:12:34;;;;;;;0.70;0.60;;;;;;;;;;5069699;28;20727;-82
2021/05/23 14:15:00;;;;;;;1.00;0.70;;;;;;;;;;5069894;28;20198;-81
2021/05/23 14:17:26;;;;;;;0.87;0.70;;;;;;;;;;5070870;28;20179;-82
2021/05/23 14:19:53;;;;;;;1.07;0.60;;;;;;;;;;5071494;28;20248;-82
2021/05/23 14:22:19;;;;;;;0.70;0.47;;;;;;;;;;5069290;28;20203;-81
2021/05/23 14:24:45;;;;;;;0.55;0.55;;;;;;;;;;5071532;28;20213;-80
2021/05/23 14:27:11;;;;;;;0.57;0.57;;;;;;;;;;5072611;28;20241;-82
2021/05/23 14:29:38;;;;;;;2.20;0.63;;;;;;;;;;5072472;28;20190;-82
2021/05/23 14:32:05;;;;;;;1.07;0.80;;;;;;;;;;5072820;28;20250;-83
2021/05/23 14:34:31;;;;;;;0.67;0.50;;;;;;;;;;5073162;28;20221;-82
2021/05/23 14:36:57;;;;;;;0.47;0.47;;;;;;;;;;5072496;28;20197;-81
2021/05/23 14:39:23;;;;;;;0.70;0.40;;;;;;;;;;5072687;28;20721;-83
2021/05/23 14:41:49;;;;;;;0.43;0.43;;;;;;;;;;5090735;28;20202;-82